createdAt,value
2016-12-04T00:00:49.680Z,0
2016-12-04T00:02:00.847Z,0
2016-12-04T00:03:12.579Z,0
2016-12-04T00:04:23.722Z,0
2016-12-04T00:05:34.896Z,0
2016-12-04T00:06:46.068Z,0
2016-12-04T00:07:57.241Z,0
2016-12-04T00:09:08.418Z,0
2016-12-04T00:10:19.587Z,0
2016-12-04T00:11:30.765Z,0
2016-12-04T00:12:41.935Z,0
2016-12-04T00:13:53.101Z,0
2016-12-04T00:15:04.276Z,0
2016-12-04T00:16:15.423Z,0
2016-12-04T00:17:26.614Z,0
2016-12-04T00:18:37.797Z,0
2016-12-04T00:19:48.957Z,0
2016-12-04T00:21:00.153Z,0
2016-12-04T00:22:11.317Z,0
2016-12-04T00:23:22.457Z,0
2016-12-04T00:24:33.615Z,0
2016-12-04T00:25:44.786Z,0
2016-12-04T00:26:55.957Z,0
2016-12-04T00:28:07.125Z,0
2016-12-04T00:29:18.290Z,0
2016-12-04T00:30:29.470Z,0
2016-12-04T00:31:40.638Z,0
2016-12-04T00:32:51.765Z,0
2016-12-04T00:34:02.933Z,0
2016-12-04T00:35:14.099Z,0
2016-12-04T00:36:25.266Z,0
2016-12-04T00:37:36.421Z,0
2016-12-04T00:38:47.592Z,0
2016-12-04T00:39:58.754Z,0
2016-12-04T00:41:09.927Z,0
2016-12-04T00:42:21.086Z,0
2016-12-04T00:43:32.240Z,0
2016-12-04T00:44:43.394Z,0
2016-12-04T00:45:54.589Z,0
2016-12-04T00:47:05.758Z,0
2016-12-04T00:48:16.920Z,0
2016-12-04T00:49:28.045Z,0
2016-12-04T00:50:39.198Z,0
2016-12-04T00:51:50.344Z,0
2016-12-04T00:53:01.506Z,0
2016-12-04T00:54:13.221Z,0
2016-12-04T00:55:24.380Z,0
2016-12-04T00:56:35.529Z,0
2016-12-04T00:57:46.700Z,0
2016-12-04T00:58:57.854Z,0
2016-12-04T01:00:09.572Z,0
2016-12-04T01:01:20.727Z,0
2016-12-04T01:02:31.890Z,0
2016-12-04T01:03:43.068Z,0
2016-12-04T01:04:54.244Z,0
2016-12-04T01:06:05.400Z,0
2016-12-04T01:07:17.157Z,0
2016-12-04T01:08:28.306Z,0
2016-12-04T01:09:39.485Z,0
2016-12-04T01:10:50.658Z,0
2016-12-04T01:12:01.807Z,0
2016-12-04T01:13:13.002Z,0
2016-12-04T01:14:24.151Z,0
2016-12-04T01:15:35.318Z,0
2016-12-04T01:16:46.479Z,0
2016-12-04T01:17:57.612Z,0
2016-12-04T01:19:08.763Z,0
2016-12-04T01:20:19.936Z,0
2016-12-04T01:21:31.114Z,0
2016-12-04T01:22:42.308Z,0
2016-12-04T01:23:53.470Z,0
2016-12-04T01:25:04.608Z,0
2016-12-04T01:26:15.774Z,0
2016-12-04T01:27:26.943Z,0
2016-12-04T01:28:38.116Z,0
2016-12-04T01:29:49.262Z,0
2016-12-04T01:31:00.547Z,0
2016-12-04T01:32:12.271Z,0
2016-12-04T01:33:23.428Z,0
2016-12-04T01:34:34.577Z,0
2016-12-04T01:35:45.739Z,0
2016-12-04T01:36:56.933Z,0
2016-12-04T01:38:08.109Z,0
2016-12-04T01:39:19.251Z,0
2016-12-04T01:40:30.415Z,0
2016-12-04T01:41:41.591Z,0
2016-12-04T01:42:52.740Z,0
2016-12-04T01:44:03.885Z,0
2016-12-04T01:45:15.624Z,0
2016-12-04T01:46:26.795Z,0
2016-12-04T01:47:37.934Z,0
2016-12-04T01:48:49.077Z,0
2016-12-04T01:50:00.237Z,0
2016-12-04T01:51:11.368Z,0
2016-12-04T01:52:22.512Z,0
2016-12-04T01:53:33.657Z,0
2016-12-04T01:54:44.840Z,0
2016-12-04T01:55:55.979Z,0
2016-12-04T01:57:07.158Z,0
2016-12-04T01:58:18.322Z,0
2016-12-04T01:59:29.463Z,0
2016-12-04T02:00:40.638Z,0
2016-12-04T02:01:51.784Z,0
2016-12-04T02:03:02.992Z,0
2016-12-04T02:04:14.143Z,0
2016-12-04T02:05:25.294Z,0
2016-12-04T02:06:36.443Z,0
2016-12-04T02:07:47.595Z,0
2016-12-04T02:08:58.763Z,0
2016-12-04T02:10:09.969Z,0
2016-12-04T02:11:21.125Z,0
2016-12-04T02:12:32.318Z,0
2016-12-04T02:13:43.469Z,0
2016-12-04T02:14:54.648Z,0
2016-12-04T02:16:05.783Z,0
2016-12-04T02:17:16.946Z,0
2016-12-04T02:18:28.119Z,0
2016-12-04T02:19:39.266Z,0
2016-12-04T02:20:50.428Z,0
2016-12-04T02:22:01.590Z,0
2016-12-04T02:23:12.779Z,0
2016-12-04T02:24:23.921Z,0
2016-12-04T02:25:35.071Z,0
2016-12-04T02:26:46.264Z,0
2016-12-04T02:27:57.435Z,0
2016-12-04T02:29:08.590Z,0
2016-12-04T02:30:19.762Z,0
2016-12-04T02:31:30.906Z,0
2016-12-04T02:32:42.046Z,0
2016-12-04T02:33:53.198Z,0
2016-12-04T02:35:04.362Z,0
2016-12-04T02:36:15.503Z,0
2016-12-04T02:37:26.659Z,0
2016-12-04T02:38:37.819Z,0
2016-12-04T02:39:48.978Z,0
2016-12-04T02:41:00.208Z,0
2016-12-04T02:42:11.330Z,0
2016-12-04T02:43:22.489Z,0
2016-12-04T02:44:33.630Z,0
2016-12-04T02:45:44.819Z,0
2016-12-04T02:46:55.970Z,0
2016-12-04T02:48:07.115Z,0
2016-12-04T02:49:18.293Z,0
2016-12-04T02:50:29.453Z,0
2016-12-04T02:51:40.634Z,0
2016-12-04T02:52:51.787Z,0
2016-12-04T02:54:02.954Z,0
2016-12-04T02:55:14.146Z,0
2016-12-04T02:56:25.299Z,0
2016-12-04T02:57:36.451Z,0
2016-12-04T02:58:47.644Z,0
2016-12-04T02:59:58.835Z,0
2016-12-04T03:01:09.990Z,0
2016-12-04T03:02:21.135Z,0
2016-12-04T03:03:32.282Z,0
2016-12-04T03:04:43.423Z,0
2016-12-04T03:05:54.579Z,0
2016-12-04T03:07:05.809Z,0
2016-12-04T03:08:17.005Z,0
2016-12-04T03:09:28.166Z,0
2016-12-04T03:10:39.330Z,0
2016-12-04T03:11:50.492Z,0
2016-12-04T03:13:01.680Z,0
2016-12-04T03:14:12.865Z,0
2016-12-04T03:15:24.047Z,0
2016-12-04T03:16:35.225Z,0
2016-12-04T03:17:46.447Z,0
2016-12-04T03:18:57.594Z,0
2016-12-04T03:20:08.760Z,0
2016-12-04T03:21:20.519Z,0
2016-12-04T03:22:31.771Z,0
2016-12-04T03:23:42.958Z,0
2016-12-04T03:24:54.119Z,0
2016-12-04T03:26:05.302Z,0
2016-12-04T03:27:16.484Z,0
2016-12-04T03:28:27.627Z,0
2016-12-04T03:29:38.774Z,0
2016-12-04T03:30:49.940Z,0
2016-12-04T03:32:01.079Z,0
2016-12-04T03:33:12.226Z,0
2016-12-04T03:34:23.389Z,0
2016-12-04T03:35:34.529Z,0
2016-12-04T03:36:45.683Z,0
2016-12-04T03:37:56.869Z,0
2016-12-04T03:39:08.005Z,0
2016-12-04T03:40:19.174Z,0
2016-12-04T03:41:30.320Z,0
2016-12-04T03:42:41.484Z,0
2016-12-04T03:43:52.653Z,0
2016-12-04T03:45:03.814Z,0
2016-12-04T03:46:14.971Z,0
2016-12-04T03:47:26.128Z,0
2016-12-04T03:48:37.284Z,0
2016-12-04T03:49:48.455Z,0
2016-12-04T03:50:59.607Z,0
2016-12-04T03:52:12.860Z,0
2016-12-04T03:53:24.014Z,0
2016-12-04T03:54:35.175Z,0
2016-12-04T03:55:46.352Z,0
2016-12-04T03:56:57.507Z,0
2016-12-04T03:58:08.651Z,0
2016-12-04T03:59:19.805Z,0
2016-12-04T04:00:30.973Z,0
2016-12-04T04:01:42.144Z,0
2016-12-04T04:02:53.314Z,0
2016-12-04T04:04:04.493Z,0
2016-12-04T04:05:15.665Z,0
2016-12-04T04:06:26.834Z,0
2016-12-04T04:07:37.974Z,0
2016-12-04T04:08:49.111Z,0
2016-12-04T04:10:00.275Z,0
2016-12-04T04:11:11.439Z,0
2016-12-04T04:12:22.629Z,0
2016-12-04T04:13:33.808Z,0
2016-12-04T04:14:44.965Z,0
2016-12-04T04:15:56.126Z,0
2016-12-04T04:17:07.280Z,0
2016-12-04T04:18:18.456Z,0
2016-12-04T04:19:29.623Z,0
2016-12-04T04:20:41.359Z,0
2016-12-04T04:21:52.537Z,0
2016-12-04T04:23:03.708Z,0
2016-12-04T04:24:14.896Z,0
2016-12-04T04:25:26.048Z,0
2016-12-04T04:26:37.212Z,0
2016-12-04T04:27:48.372Z,0
2016-12-04T04:28:59.513Z,0
2016-12-04T04:30:10.689Z,0
2016-12-04T04:31:24.569Z,0
2016-12-04T04:32:35.755Z,0
2016-12-04T04:33:46.897Z,0
2016-12-04T04:34:58.042Z,0
2016-12-04T04:36:09.216Z,0
2016-12-04T04:37:24.690Z,0
2016-12-04T04:38:35.914Z,0
2016-12-04T04:39:47.055Z,0
2016-12-04T04:40:58.223Z,0
2016-12-04T04:42:09.388Z,0
2016-12-04T04:43:20.552Z,0
2016-12-04T04:44:31.705Z,0
2016-12-04T04:45:42.879Z,0
2016-12-04T04:46:54.059Z,0
2016-12-04T04:48:05.206Z,0
2016-12-04T04:49:16.367Z,0
2016-12-04T04:50:28.828Z,0
2016-12-04T04:51:39.970Z,0
2016-12-04T04:52:51.115Z,0
2016-12-04T04:54:02.255Z,0
2016-12-04T04:55:13.419Z,0
2016-12-04T04:56:24.618Z,0
2016-12-04T04:57:36.371Z,0
2016-12-04T04:58:47.517Z,0
2016-12-04T04:59:58.663Z,0
2016-12-04T05:01:10.397Z,0
2016-12-04T05:02:21.550Z,0
2016-12-04T05:03:32.744Z,0
2016-12-04T05:04:43.906Z,0
2016-12-04T05:05:55.073Z,0
2016-12-04T05:07:06.239Z,0
2016-12-04T05:08:17.394Z,0
2016-12-04T05:09:28.544Z,0
2016-12-04T05:10:39.686Z,0
2016-12-04T05:11:50.873Z,0
2016-12-04T05:13:02.036Z,0
2016-12-04T05:14:13.188Z,0
2016-12-04T05:15:24.928Z,0
2016-12-04T05:16:36.118Z,0
2016-12-04T05:17:47.252Z,0
2016-12-04T05:18:58.414Z,0
2016-12-04T05:20:09.586Z,0
2016-12-04T05:21:20.730Z,0
2016-12-04T05:22:31.919Z,0
2016-12-04T05:23:43.074Z,0
2016-12-04T05:24:54.235Z,0
2016-12-04T05:26:05.391Z,0
2016-12-04T05:27:16.576Z,0
2016-12-04T05:28:27.736Z,0
2016-12-04T05:29:39.447Z,0
2016-12-04T05:30:50.589Z,0
2016-12-04T05:32:01.785Z,0
2016-12-04T05:33:12.955Z,0
2016-12-04T05:34:24.093Z,0
2016-12-04T05:35:35.807Z,0
2016-12-04T05:36:47.017Z,0
2016-12-04T05:37:58.179Z,0
2016-12-04T05:39:09.347Z,0
2016-12-04T05:40:20.514Z,0
2016-12-04T05:41:31.710Z,0
2016-12-04T05:42:42.874Z,0
2016-12-04T05:43:54.025Z,0
2016-12-04T05:45:05.172Z,0
2016-12-04T05:46:16.327Z,0
2016-12-04T05:47:27.467Z,0
2016-12-04T05:48:38.592Z,0
2016-12-04T05:49:49.755Z,0
2016-12-04T05:51:00.891Z,0
2016-12-04T05:52:12.047Z,0
2016-12-04T05:53:23.234Z,0
2016-12-04T05:54:34.394Z,0
2016-12-04T05:55:45.569Z,0
2016-12-04T05:56:56.737Z,0
2016-12-04T05:58:07.873Z,0
2016-12-04T05:59:19.018Z,0
2016-12-04T06:00:30.162Z,0
2016-12-04T06:01:41.313Z,0
2016-12-04T06:02:52.496Z,0
2016-12-04T06:04:03.689Z,0
2016-12-04T06:05:14.849Z,0
2016-12-04T06:06:26.018Z,0
2016-12-04T06:07:37.188Z,0
2016-12-04T06:08:48.331Z,0
2016-12-04T06:09:59.493Z,0
2016-12-04T06:11:10.621Z,0
2016-12-04T06:12:21.795Z,0
2016-12-04T06:13:32.959Z,0
2016-12-04T06:14:44.126Z,0
2016-12-04T06:15:55.278Z,0
2016-12-04T06:17:06.424Z,0
2016-12-04T06:18:17.593Z,0
2016-12-04T06:19:28.747Z,0
2016-12-04T06:20:39.931Z,0
2016-12-04T06:21:51.093Z,0
2016-12-04T06:23:02.246Z,0
2016-12-04T06:24:13.396Z,0
2016-12-04T06:25:24.556Z,0
2016-12-04T06:26:35.718Z,0
2016-12-04T06:27:46.908Z,0
2016-12-04T06:28:58.087Z,0
2016-12-04T06:30:09.248Z,0
2016-12-04T06:31:20.702Z,0
2016-12-04T06:32:31.855Z,0
2016-12-04T06:33:43.021Z,0
2016-12-04T06:34:54.386Z,0
2016-12-04T06:36:05.531Z,0
2016-12-04T06:37:16.674Z,0
2016-12-04T06:38:27.842Z,0
2016-12-04T06:39:39.006Z,0
2016-12-04T06:40:50.160Z,0
2016-12-04T06:42:01.883Z,0
2016-12-04T06:43:13.024Z,0
2016-12-04T06:44:24.264Z,0
2016-12-04T06:45:35.436Z,0
2016-12-04T06:46:46.587Z,0
2016-12-04T06:47:57.768Z,0
2016-12-04T06:49:08.936Z,0
2016-12-04T06:50:20.103Z,0
2016-12-04T06:51:31.851Z,0
2016-12-04T06:52:43.582Z,0
2016-12-04T06:53:54.728Z,0
2016-12-04T06:55:05.886Z,0
2016-12-04T06:56:17.025Z,0
2016-12-04T06:57:28.206Z,0
2016-12-04T06:58:39.348Z,0
2016-12-04T06:59:50.509Z,0
2016-12-04T07:01:01.664Z,0
2016-12-04T07:02:13.407Z,0
2016-12-04T07:03:24.581Z,0
2016-12-04T07:04:35.754Z,0
2016-12-04T07:05:46.917Z,0
2016-12-04T07:06:58.074Z,0
2016-12-04T07:08:09.247Z,0
2016-12-04T07:09:20.388Z,0
2016-12-04T07:10:31.582Z,0
2016-12-04T07:11:42.729Z,0
2016-12-04T07:12:53.872Z,0
2016-12-04T07:14:05.051Z,0
2016-12-04T07:15:16.212Z,0
2016-12-04T07:16:27.357Z,0
2016-12-04T07:17:38.533Z,0
2016-12-04T07:18:49.699Z,0
2016-12-04T07:20:00.852Z,0
2016-12-04T07:21:12.025Z,0
2016-12-04T07:22:23.163Z,0
2016-12-04T07:23:34.332Z,0
2016-12-04T07:24:45.526Z,0
2016-12-04T07:25:56.712Z,0
2016-12-04T07:27:07.851Z,0
2016-12-04T07:28:19.014Z,0
2016-12-04T07:29:30.175Z,0
2016-12-04T07:30:41.327Z,0
2016-12-04T07:31:52.490Z,0
2016-12-04T07:33:03.642Z,0
2016-12-04T07:34:14.791Z,0
2016-12-04T07:35:25.994Z,0
2016-12-04T07:36:37.158Z,0
2016-12-04T07:37:48.318Z,0
2016-12-04T07:38:59.469Z,0
2016-12-04T07:40:10.638Z,0
2016-12-04T07:41:21.790Z,0
2016-12-04T07:42:32.958Z,0
2016-12-04T07:43:44.101Z,0
2016-12-04T07:44:55.253Z,0
2016-12-04T07:46:06.417Z,0
2016-12-04T07:47:17.594Z,0
2016-12-04T07:48:28.719Z,0
2016-12-04T07:49:39.913Z,0
2016-12-04T07:50:51.069Z,0
2016-12-04T07:52:02.245Z,0
2016-12-04T07:53:13.394Z,0
2016-12-04T07:54:24.571Z,0
2016-12-04T07:55:35.712Z,0
2016-12-04T07:56:46.929Z,0
2016-12-04T07:57:58.091Z,0
2016-12-04T07:59:09.256Z,0
2016-12-04T08:00:20.426Z,0
2016-12-04T08:01:31.586Z,0
2016-12-04T08:02:42.738Z,0
2016-12-04T08:03:53.887Z,0
2016-12-04T08:05:05.046Z,0
2016-12-04T08:06:16.211Z,0
2016-12-04T08:07:27.385Z,0
2016-12-04T08:08:39.079Z,5
2016-12-04T08:09:50.229Z,5
2016-12-04T08:11:01.384Z,5
2016-12-04T08:12:12.551Z,10
2016-12-04T08:13:23.702Z,15
2016-12-04T08:14:34.835Z,15
2016-12-04T08:15:45.998Z,15
2016-12-04T08:16:57.140Z,20
2016-12-04T08:18:08.311Z,25
2016-12-04T08:19:19.515Z,30
2016-12-04T08:20:31.233Z,40
2016-12-04T08:21:42.414Z,45
2016-12-04T08:22:53.590Z,50
2016-12-04T08:24:04.738Z,60
2016-12-04T08:25:15.885Z,65
2016-12-04T08:26:27.049Z,70
2016-12-04T08:27:38.226Z,75
2016-12-04T08:28:49.381Z,70
2016-12-04T08:30:00.531Z,75
2016-12-04T08:31:11.698Z,80
2016-12-04T08:32:22.818Z,90
2016-12-04T08:33:33.986Z,95
2016-12-04T08:34:45.131Z,95
2016-12-04T08:35:56.837Z,110
2016-12-04T08:37:08.575Z,120
2016-12-04T08:38:19.753Z,125
2016-12-04T08:39:30.916Z,140
2016-12-04T08:40:42.090Z,150
2016-12-04T08:41:53.255Z,150
2016-12-04T08:43:04.421Z,165
2016-12-04T08:44:15.572Z,165
2016-12-04T08:45:26.730Z,180
2016-12-04T08:46:37.901Z,190
2016-12-04T08:47:49.078Z,200
2016-12-04T08:49:00.219Z,215
2016-12-04T08:50:11.399Z,240
2016-12-04T08:51:22.563Z,245
2016-12-04T08:52:33.715Z,265
2016-12-04T08:53:44.880Z,270
2016-12-04T08:54:56.644Z,285
2016-12-04T08:56:07.820Z,275
2016-12-04T08:57:18.975Z,305
2016-12-04T08:58:30.128Z,315
2016-12-04T08:59:41.320Z,320
2016-12-04T09:00:52.470Z,305
2016-12-04T09:02:03.601Z,310
2016-12-04T09:03:14.751Z,325
2016-12-04T09:04:25.896Z,370
2016-12-04T09:05:37.064Z,385
2016-12-04T09:06:48.218Z,365
2016-12-04T09:07:59.352Z,365
2016-12-04T09:09:10.494Z,380
2016-12-04T09:10:22.228Z,405
2016-12-04T09:11:33.379Z,405
2016-12-04T09:12:44.538Z,470
2016-12-04T09:13:56.272Z,415
2016-12-04T09:15:07.465Z,445
2016-12-04T09:16:18.625Z,465
2016-12-04T09:17:29.783Z,475
2016-12-04T09:18:40.942Z,505
2016-12-04T09:19:52.091Z,585
2016-12-04T09:21:03.230Z,600
2016-12-04T09:22:14.401Z,620
2016-12-04T09:23:25.571Z,715
2016-12-04T09:24:36.733Z,1060
2016-12-04T09:25:47.879Z,900
2016-12-04T09:26:59.027Z,795
2016-12-04T09:28:10.179Z,820
2016-12-04T09:29:21.321Z,775
2016-12-04T09:30:32.513Z,815
2016-12-04T09:31:43.669Z,860
2016-12-04T09:32:55.396Z,1200
2016-12-04T09:34:06.587Z,885
2016-12-04T09:35:17.744Z,1255
2016-12-04T09:36:28.939Z,925
2016-12-04T09:37:40.108Z,1050
2016-12-04T09:38:51.300Z,1120
2016-12-04T09:40:02.472Z,1125
2016-12-04T09:41:13.622Z,975
2016-12-04T09:42:24.789Z,910
2016-12-04T09:43:35.930Z,885
2016-12-04T09:44:47.098Z,870
2016-12-04T09:45:58.248Z,815
2016-12-04T09:47:09.410Z,750
2016-12-04T09:48:20.566Z,865
2016-12-04T09:49:31.714Z,900
2016-12-04T09:50:42.882Z,670
2016-12-04T09:51:54.040Z,735
2016-12-04T09:53:05.206Z,700
2016-12-04T09:54:16.392Z,645
2016-12-04T09:55:27.576Z,615
2016-12-04T09:56:38.752Z,650
2016-12-04T09:57:49.911Z,675
2016-12-04T09:59:01.081Z,670
2016-12-04T10:00:12.830Z,575
2016-12-04T10:01:24.042Z,725
2016-12-04T10:02:35.193Z,735
2016-12-04T10:03:46.344Z,1045
2016-12-04T10:04:57.489Z,1330
2016-12-04T10:06:08.660Z,1310
2016-12-04T10:07:19.843Z,1255
2016-12-04T10:08:31.014Z,1310
2016-12-04T10:09:42.169Z,1340
2016-12-04T10:10:53.324Z,1410
2016-12-04T10:12:05.059Z,705
2016-12-04T10:13:16.260Z,770
2016-12-04T10:14:27.453Z,945
2016-12-04T10:15:38.619Z,690
2016-12-04T10:16:49.793Z,1935
2016-12-04T10:18:00.962Z,2015
2016-12-04T10:19:12.115Z,1260
2016-12-04T10:20:23.262Z,1155
2016-12-04T10:21:34.428Z,1075
2016-12-04T10:22:45.578Z,1095
2016-12-04T10:23:56.723Z,960
2016-12-04T10:25:07.869Z,1180
2016-12-04T10:26:19.032Z,1010
2016-12-04T10:27:30.216Z,1110
2016-12-04T10:28:41.942Z,1215
2016-12-04T10:29:53.098Z,1180
2016-12-04T10:31:04.251Z,1205
2016-12-04T10:32:15.427Z,960
2016-12-04T10:33:26.590Z,1665
2016-12-04T10:34:37.735Z,1220
2016-12-04T10:35:48.905Z,1075
2016-12-04T10:37:00.641Z,1190
2016-12-04T10:38:11.776Z,995
2016-12-04T10:39:22.947Z,1750
2016-12-04T10:40:34.150Z,1705
2016-12-04T10:41:45.355Z,1195
2016-12-04T10:42:57.087Z,2255
2016-12-04T10:44:08.256Z,1205
2016-12-04T10:45:19.430Z,1040
2016-12-04T10:46:30.582Z,1625
2016-12-04T10:47:42.361Z,1060
2016-12-04T10:48:53.546Z,1480
2016-12-04T10:50:04.798Z,1875
2016-12-04T10:51:16.581Z,1880
2016-12-04T10:52:27.768Z,1755
2016-12-04T10:53:38.917Z,1640
2016-12-04T10:54:50.101Z,1595
2016-12-04T10:56:01.258Z,2030
2016-12-04T10:57:12.457Z,1060
2016-12-04T10:58:23.651Z,2115
2016-12-04T10:59:35.370Z,2170
2016-12-04T11:00:46.532Z,2585
2016-12-04T11:01:58.276Z,2765
2016-12-04T11:03:09.443Z,1045
2016-12-04T11:04:20.597Z,3100
2016-12-04T11:05:31.777Z,2775
2016-12-04T11:06:42.952Z,2715
2016-12-04T11:07:54.096Z,2875
2016-12-04T11:09:05.282Z,3030
2016-12-04T11:10:16.447Z,3025
2016-12-04T11:11:27.597Z,2840
2016-12-04T11:12:38.771Z,3040
2016-12-04T11:13:49.942Z,3095
2016-12-04T11:15:01.115Z,3075
2016-12-04T11:16:12.304Z,2880
2016-12-04T11:17:23.455Z,2255
2016-12-04T11:18:34.629Z,2790
2016-12-04T11:19:45.801Z,3320
2016-12-04T11:20:56.953Z,3520
2016-12-04T11:22:08.118Z,1800
2016-12-04T11:23:19.284Z,3165
2016-12-04T11:24:30.454Z,1255
2016-12-04T11:25:41.675Z,1695
2016-12-04T11:26:53.396Z,3670
2016-12-04T11:28:04.566Z,3425
2016-12-04T11:29:15.706Z,3420
2016-12-04T11:30:26.889Z,2775
2016-12-04T11:31:38.037Z,3860
2016-12-04T11:32:49.199Z,1565
2016-12-04T11:34:00.375Z,1280
2016-12-04T11:35:11.539Z,1055
2016-12-04T11:36:22.693Z,3565
2016-12-04T11:37:33.833Z,3760
2016-12-04T11:38:45.011Z,1940
2016-12-04T11:39:56.184Z,3825
2016-12-04T11:41:07.353Z,4070
2016-12-04T11:42:18.526Z,1280
2016-12-04T11:43:29.698Z,4180
2016-12-04T11:44:40.882Z,1595
2016-12-04T11:45:52.039Z,1440
2016-12-04T11:47:03.217Z,1190
2016-12-04T11:48:14.416Z,1325
2016-12-04T11:49:25.577Z,1225
2016-12-04T11:50:36.770Z,1715
2016-12-04T11:51:48.497Z,3815
2016-12-04T11:52:59.676Z,3010
2016-12-04T11:54:10.838Z,1685
2016-12-04T11:55:21.991Z,1180
2016-12-04T11:56:33.199Z,1470
2016-12-04T11:57:44.382Z,1225
2016-12-04T11:58:55.561Z,3870
2016-12-04T12:00:06.725Z,1315
2016-12-04T12:01:18.487Z,1680
2016-12-04T12:02:29.637Z,1290
2016-12-04T12:03:40.844Z,4255
2016-12-04T12:04:52.024Z,2070
2016-12-04T12:06:03.757Z,1215
2016-12-04T12:07:14.910Z,1515
2016-12-04T12:08:26.107Z,1430
2016-12-04T12:09:37.280Z,4155
2016-12-04T12:10:48.461Z,2120
2016-12-04T12:11:59.590Z,4510
2016-12-04T12:13:10.762Z,4070
2016-12-04T12:14:21.984Z,3175
2016-12-04T12:15:33.134Z,1070
2016-12-04T12:16:44.305Z,970
2016-12-04T12:17:55.469Z,2210
2016-12-04T12:19:06.642Z,3920
2016-12-04T12:20:17.832Z,4080
2016-12-04T12:21:28.973Z,4065
2016-12-04T12:22:40.150Z,4095
2016-12-04T12:23:51.884Z,4105
2016-12-04T12:25:03.050Z,4100
2016-12-04T12:26:14.212Z,4170
2016-12-04T12:27:25.409Z,4115
2016-12-04T12:28:36.587Z,4195
2016-12-04T12:29:47.759Z,1270
2016-12-04T12:30:58.947Z,2025
2016-12-04T12:32:10.124Z,2545
2016-12-04T12:33:21.302Z,4000
2016-12-04T12:34:33.030Z,4085
2016-12-04T12:35:44.250Z,4265
2016-12-04T12:36:55.414Z,4530
2016-12-04T12:38:06.602Z,4165
2016-12-04T12:39:17.803Z,4280
2016-12-04T12:40:28.986Z,2305
2016-12-04T12:41:40.130Z,2270
2016-12-04T12:42:51.317Z,3105
2016-12-04T12:44:02.501Z,2855
2016-12-04T12:45:13.685Z,4140
2016-12-04T12:46:24.835Z,4340
2016-12-04T12:47:36.001Z,4450
2016-12-04T12:48:47.147Z,4485
2016-12-04T12:49:58.320Z,4750
2016-12-04T12:51:10.057Z,4600
2016-12-04T12:52:21.222Z,1505
2016-12-04T12:53:32.408Z,2725
2016-12-04T12:54:43.575Z,1560
2016-12-04T12:55:54.739Z,900
2016-12-04T12:57:05.929Z,1035
2016-12-04T12:58:17.097Z,1205
2016-12-04T12:59:28.256Z,4680
2016-12-04T13:00:39.393Z,4830
2016-12-04T13:01:50.606Z,4550
2016-12-04T13:03:01.779Z,4925
2016-12-04T13:04:12.956Z,4760
2016-12-04T13:05:24.177Z,1260
2016-12-04T13:06:35.331Z,2645
2016-12-04T13:07:46.493Z,4305
2016-12-04T13:08:57.639Z,4455
2016-12-04T13:10:08.776Z,4750
2016-12-04T13:11:19.912Z,4515
2016-12-04T13:12:31.070Z,4775
2016-12-04T13:13:42.234Z,5105
2016-12-04T13:14:53.413Z,1600
2016-12-04T13:16:04.581Z,1560
2016-12-04T13:17:15.785Z,1365
2016-12-04T13:18:26.953Z,4400
2016-12-04T13:19:38.156Z,3205
2016-12-04T13:20:49.327Z,1485
2016-12-04T13:22:00.496Z,5515
2016-12-04T13:23:11.645Z,4565
2016-12-04T13:24:22.816Z,3145
2016-12-04T13:25:33.982Z,2045
2016-12-04T13:26:45.144Z,1685
2016-12-04T13:27:56.287Z,4645
2016-12-04T13:29:07.439Z,5630
2016-12-04T13:30:18.600Z,1620
2016-12-04T13:31:29.892Z,1365
2016-12-04T13:32:41.087Z,4815
2016-12-04T13:33:52.284Z,4900
2016-12-04T13:35:03.460Z,5000
2016-12-04T13:36:14.618Z,5145
2016-12-04T13:37:25.810Z,4975
2016-12-04T13:38:36.989Z,4720
2016-12-04T13:39:48.167Z,1550
2016-12-04T13:40:59.335Z,5195
2016-12-04T13:42:10.506Z,1805
2016-12-04T13:43:22.218Z,5060
2016-12-04T13:44:33.374Z,4905
2016-12-04T13:45:44.544Z,5080
2016-12-04T13:46:55.732Z,5080
2016-12-04T13:48:06.905Z,5025
2016-12-04T13:49:18.067Z,5015
2016-12-04T13:50:29.210Z,5220
2016-12-04T13:51:40.589Z,5110
2016-12-04T13:52:51.750Z,5155
2016-12-04T13:54:02.927Z,5020
2016-12-04T13:55:14.113Z,5120
2016-12-04T13:56:25.284Z,5020
2016-12-04T13:57:36.481Z,4960
2016-12-04T13:58:47.640Z,5205
2016-12-04T13:59:58.809Z,3080
2016-12-04T14:01:09.966Z,970
2016-12-04T14:02:21.143Z,1255
2016-12-04T14:03:32.336Z,5320
2016-12-04T14:04:43.504Z,1355
2016-12-04T14:05:54.675Z,3825
2016-12-04T14:07:05.869Z,4920
2016-12-04T14:08:17.042Z,4785
2016-12-04T14:09:28.223Z,5135
2016-12-04T14:10:39.378Z,3110
2016-12-04T14:11:50.550Z,5745
2016-12-04T14:13:01.731Z,1435
2016-12-04T14:14:12.907Z,1190
2016-12-04T14:15:24.095Z,5385
2016-12-04T14:16:35.242Z,1170
2016-12-04T14:17:46.389Z,1485
2016-12-04T14:18:57.536Z,5770
2016-12-04T14:20:08.713Z,1295
2016-12-04T14:21:19.883Z,1580
2016-12-04T14:22:31.058Z,1135
2016-12-04T14:23:42.225Z,1170
2016-12-04T14:24:53.378Z,1310
2016-12-04T14:26:04.533Z,1785
2016-12-04T14:27:15.737Z,1995
2016-12-04T14:28:26.895Z,5915
2016-12-04T14:29:38.053Z,5755
2016-12-04T14:30:49.223Z,5315
2016-12-04T14:32:00.383Z,5705
2016-12-04T14:33:11.543Z,5715
2016-12-04T14:34:22.709Z,5425
2016-12-04T14:35:33.873Z,1725
2016-12-04T14:36:45.048Z,5125
2016-12-04T14:37:56.241Z,5520
2016-12-04T14:39:07.382Z,1465
2016-12-04T14:40:18.574Z,5790
2016-12-04T14:41:29.743Z,1225
2016-12-04T14:42:40.889Z,5165
2016-12-04T14:43:52.064Z,5085
2016-12-04T14:45:03.246Z,4960
2016-12-04T14:46:14.470Z,5110
2016-12-04T14:47:25.649Z,5690
2016-12-04T14:48:36.797Z,5910
2016-12-04T14:49:47.967Z,5770
2016-12-04T14:50:59.161Z,5650
2016-12-04T14:52:10.301Z,1580
2016-12-04T14:53:21.469Z,2825
2016-12-04T14:54:32.682Z,1290
2016-12-04T14:55:43.864Z,1165
2016-12-04T14:56:55.045Z,1155
2016-12-04T14:58:06.215Z,1200
2016-12-04T14:59:17.378Z,1515
2016-12-04T15:00:28.574Z,4390
2016-12-04T15:01:39.772Z,4690
2016-12-04T15:02:50.951Z,5720
2016-12-04T15:04:02.150Z,5600
2016-12-04T15:05:13.335Z,5495
2016-12-04T15:06:24.485Z,5640
2016-12-04T15:07:35.663Z,1550
2016-12-04T15:08:46.854Z,5350
2016-12-04T15:09:58.024Z,5330
2016-12-04T15:11:09.187Z,5230
2016-12-04T15:12:20.335Z,3265
2016-12-04T15:13:31.543Z,1255
2016-12-04T15:14:42.712Z,3205
2016-12-04T15:15:53.908Z,2840
2016-12-04T15:17:05.097Z,4595
2016-12-04T15:18:16.263Z,4480
2016-12-04T15:19:27.441Z,4225
2016-12-04T15:20:38.977Z,1205
2016-12-04T15:21:50.235Z,3845
2016-12-04T15:23:01.405Z,3300
2016-12-04T15:24:12.577Z,1605
2016-12-04T15:25:23.774Z,4975
2016-12-04T15:26:34.946Z,5270
2016-12-04T15:27:46.150Z,5150
2016-12-04T15:28:57.333Z,5195
2016-12-04T15:30:08.507Z,5210
2016-12-04T15:31:19.693Z,4980
2016-12-04T15:32:30.868Z,5375
2016-12-04T15:33:42.062Z,5235
2016-12-04T15:34:53.258Z,5200
2016-12-04T15:36:04.445Z,5210
2016-12-04T15:37:15.657Z,5045
2016-12-04T15:38:26.861Z,4770
2016-12-04T15:39:38.025Z,5265
2016-12-04T15:40:49.234Z,5155
2016-12-04T15:42:00.423Z,5225
2016-12-04T15:43:11.598Z,4980
2016-12-04T15:44:22.795Z,5190
2016-12-04T15:45:33.986Z,5120
2016-12-04T15:46:45.164Z,4980
2016-12-04T15:47:56.348Z,5020
2016-12-04T15:49:07.508Z,5235
2016-12-04T15:50:18.674Z,2640
2016-12-04T15:51:29.894Z,1690
2016-12-04T15:52:41.085Z,5020
2016-12-04T15:53:52.290Z,5350
2016-12-04T15:55:03.476Z,4370
2016-12-04T15:56:15.205Z,4695
2016-12-04T15:57:26.397Z,4980
2016-12-04T15:58:37.555Z,5025
2016-12-04T15:59:48.773Z,5005
2016-12-04T16:00:59.953Z,4755
2016-12-04T16:02:11.160Z,4755
2016-12-04T16:03:22.329Z,3255
2016-12-04T16:04:33.501Z,4020
2016-12-04T16:05:44.701Z,5125
2016-12-04T16:06:55.914Z,1715
2016-12-04T16:08:07.104Z,5105
2016-12-04T16:09:18.298Z,4710
2016-12-04T16:10:29.479Z,4655
2016-12-04T16:11:40.640Z,4515
2016-12-04T16:12:51.823Z,4715
2016-12-04T16:14:02.990Z,4620
2016-12-04T16:15:14.157Z,4785
2016-12-04T16:16:25.309Z,4660
2016-12-04T16:17:36.506Z,4700
2016-12-04T16:18:47.694Z,4690
2016-12-04T16:19:58.884Z,4520
2016-12-04T16:21:10.044Z,4525
2016-12-04T16:22:21.223Z,1290
2016-12-04T16:23:32.407Z,4700
2016-12-04T16:24:43.588Z,4450
2016-12-04T16:25:54.752Z,4430
2016-12-04T16:27:05.931Z,4400
2016-12-04T16:28:17.105Z,4540
2016-12-04T16:29:28.856Z,4500
2016-12-04T16:30:40.798Z,4385
2016-12-04T16:31:51.969Z,4270
2016-12-04T16:33:03.150Z,4370
2016-12-04T16:34:14.341Z,4515
2016-12-04T16:35:25.534Z,4260
2016-12-04T16:36:36.709Z,4360
2016-12-04T16:37:47.900Z,4260
2016-12-04T16:38:59.095Z,4150
2016-12-04T16:40:10.304Z,1070
2016-12-04T16:41:21.479Z,4075